Time;durP1;ratioP1;P1;durP2;ratioP2;P2;SDS_P1;SDS_P2;PMS_P1;PMS_P2;Temp;Humidity;BMP_temperature;BMP_pressure;BME280_temperature;BME280_humidity;BME280_pressure;Samples;Min_cycle;Max_cycle;Signal;HPM_P1;HPM_P2
2023/06/11 00:01:29;;;;;;;;;;;26.70;50.50;;;;;;5052189;28;20743;-68
2023/06/11 00:03:56;;;;;;;;;;;26.70;50.60;;;;;;5051246;28;20023;-70
2023/06/11 00:06:24;;;;;;;;;;;26.70;50.70;;;;;;5055499;28;19929;-69
2023/06/11 00:08:51;;;;;;;;;;;26.60;50.70;;;;;;5056110;28;20474;-69
2023/06/11 00:11:18;;;;;;;;;;;26.60;51.50;;;;;;5054411;28;20018;-69
2023/06/11 00:13:45;;;;;;;;;;;26.60;51.00;;;;;;5053958;28;20524;-69
2023/06/11 00:16:12;;;;;;;;;;;26.50;50.90;;;;;;5052129;28;19932;-69
2023/06/11 00:18:40;;;;;;;;;;;26.50;51.00;;;;;;5052258;28;19933;-70
2023/06/11 00:21:07;;;;;;;;;;;26.40;51.10;;;;;;5054925;28;19998;-69
2023/06/11 00:23:36;;;;;;;;;;;26.40;51.10;;;;;;5053919;28;19939;-69
2023/06/11 00:26:04;;;;;;;;;;;26.30;51.10;;;;;;5054476;28;19928;-68
2023/06/11 00:28:30;;;;;;;;;;;26.30;51.20;;;;;;5049652;28;19933;-69
2023/06/11 00:30:57;;;;;;;;;;;26.30;51.30;;;;;;5053636;28;20046;-69
2023/06/11 00:33:23;;;;;;;;;;;26.20;51.40;;;;;;5056581;28;20002;-70
2023/06/11 00:35:50;;;;;;;;;;;26.20;51.50;;;;;;5059591;28;20047;-69
2023/06/11 00:38:16;;;;;;;;;;;26.20;51.60;;;;;;5054446;28;19981;-69
2023/06/11 00:40:44;;;;;;;;;;;26.10;51.70;;;;;;5066670;28;20034;-69
2023/06/11 00:43:11;;;;;;;;;;;26.10;51.70;;;;;;5058752;28;19939;-69
2023/06/11 00:45:38;;;;;;;;;;;26.00;51.80;;;;;;5059131;28;19928;-67
2023/06/11 00:48:05;;;;;;;;;;;26.00;51.80;;;;;;5064812;28;20031;-69
2023/06/11 00:50:34;;;;;;;;;;;25.90;51.90;;;;;;5068742;28;19951;-69
2023/06/11 00:53:01;;;;;;;;;;;25.90;51.90;;;;;;5062654;28;19935;-69
2023/06/11 00:55:27;;;;;;;;;;;25.80;52.00;;;;;;5065158;28;19932;-69
2023/06/11 00:57:55;;;;;;;;;;;25.80;52.00;;;;;;5061580;28;19936;-68
2023/06/11 01:00:22;;;;;;;;;;;25.80;52.10;;;;;;5067226;28;19928;-69
2023/06/11 01:02:52;;;;;;;;;;;25.70;52.00;;;;;;5062037;28;20683;-69
2023/06/11 01:05:22;;;;;;;;;;;25.70;52.20;;;;;;5070548;28;19933;-69
2023/06/11 01:07:51;;;;;;;;;;;25.70;52.30;;;;;;5057825;28;20469;-69
2023/06/11 01:10:18;;;;;;;;;;;25.60;52.40;;;;;;5065452;28;20012;-68
2023/06/11 01:12:45;;;;;;;;;;;25.60;52.50;;;;;;5062745;28;19934;-67
2023/06/11 01:15:14;;;;;;;;;;;25.60;52.50;;;;;;5060321;28;19932;-69
2023/06/11 01:17:42;;;;;;;;;;;25.50;52.50;;;;;;5063006;28;19932;-69
2023/06/11 01:20:12;;;;;;;;;;;25.50;52.70;;;;;;5060366;28;19973;-69
2023/06/11 01:22:49;;;;;;;;;;;25.50;52.70;;;;;;5058151;28;20011;-68
2023/06/11 01:25:17;;;;;;;;;;;25.40;52.80;;;;;;5055768;28;19935;-69
2023/06/11 01:28:00;;;;;;;;;;;25.30;52.80;;;;;;5062257;28;19928;-69
2023/06/11 01:30:28;;;;;;;;;;;25.30;52.90;;;;;;5059232;28;19928;-69
2023/06/11 01:32:56;;;;;;;;;;;25.30;53.00;;;;;;5060223;28;20353;-70
2023/06/11 01:35:22;;;;;;;;;;;25.30;53.10;;;;;;5062466;28;19950;-69
2023/06/11 01:37:55;;;;;;;;;;;25.20;53.10;;;;;;5063880;28;20065;-69
2023/06/11 01:40:21;;;;;;;;;;;25.10;53.10;;;;;;5060593;28;19928;-69
2023/06/11 01:42:48;;;;;;;;;;;25.10;53.40;;;;;;5056718;28;19977;-70
2023/06/11 01:45:18;;;;;;;;;;;25.10;53.40;;;;;;5062838;28;20353;-70
2023/06/11 01:47:45;;;;;;;;;;;25.10;53.50;;;;;;5060834;28;19925;-69
2023/06/11 01:50:12;;;;;;;;;;;25.00;53.50;;;;;;5061963;28;19928;-67
2023/06/11 01:52:38;;;;;;;;;;;25.00;53.60;;;;;;5051784;28;19967;-69
2023/06/11 01:55:06;;;;;;;;;;;24.90;54.10;;;;;;5061169;28;19934;-70
2023/06/11 01:57:33;;;;;;;;;;;24.90;53.60;;;;;;5057102;28;19928;-69
2023/06/11 02:00:00;;;;;;;;;;;24.90;53.70;;;;;;5060205;28;19933;-69
2023/06/11 02:02:28;;;;;;;;;;;24.80;53.80;;;;;;5063837;28;19928;-69
2023/06/11 02:04:55;;;;;;;;;;;24.80;53.90;;;;;;5068458;28;19928;-69
2023/06/11 02:07:21;;;;;;;;;;;24.80;53.90;;;;;;5065862;28;20047;-69
2023/06/11 02:09:48;;;;;;;;;;;24.80;53.90;;;;;;5056849;28;19933;-69
2023/06/11 02:12:14;;;;;;;;;;;24.70;53.90;;;;;;5063315;28;19973;-69
2023/06/11 02:14:41;;;;;;;;;;;24.70;54.00;;;;;;5056701;28;20058;-68
2023/06/11 02:17:09;;;;;;;;;;;24.60;54.00;;;;;;5075254;28;19981;-69
2023/06/11 02:19:37;;;;;;;;;;;24.60;54.10;;;;;;5057436;28;20457;-69
2023/06/11 02:22:04;;;;;;;;;;;24.60;54.20;;;;;;5070423;28;19928;-69
2023/06/11 02:24:31;;;;;;;;;;;24.50;54.20;;;;;;5058333;28;19932;-69
2023/06/11 02:26:57;;;;;;;;;;;24.50;54.30;;;;;;5059894;28;19989;-69
2023/06/11 02:29:24;;;;;;;;;;;24.50;54.30;;;;;;5060774;28;19928;-69
2023/06/11 02:31:50;;;;;;;;;;;24.50;54.40;;;;;;5056866;28;19955;-69
2023/06/11 02:34:17;;;;;;;;;;;24.40;54.40;;;;;;5060857;28;19982;-69
2023/06/11 02:36:44;;;;;;;;;;;24.40;54.50;;;;;;5060975;28;19932;-69
2023/06/11 02:39:11;;;;;;;;;;;24.30;54.50;;;;;;5061820;28;19928;-69
2023/06/11 02:41:38;;;;;;;;;;;24.30;54.70;;;;;;5060541;28;19928;-70
2023/06/11 02:44:04;;;;;;;;;;;24.30;54.70;;;;;;5065723;28;19957;-69
2023/06/11 02:46:31;;;;;;;;;;;24.20;54.60;;;;;;5064504;28;20206;-69
2023/06/11 02:48:57;;;;;;;;;;;24.20;54.80;;;;;;5066378;28;19929;-69
2023/06/11 02:51:24;;;;;;;;;;;24.20;54.90;;;;;;5063252;28;19935;-69
2023/06/11 02:53:52;;;;;;;;;;;24.10;55.00;;;;;;5063875;28;19998;-69
2023/06/11 02:56:18;;;;;;;;;;;24.10;55.00;;;;;;5058937;28;19958;-69
2023/06/11 02:58:47;;;;;;;;;;;24.10;55.10;;;;;;5062833;28;19936;-69
2023/06/11 03:01:13;;;;;;;;;;;24.00;55.20;;;;;;5068915;28;19932;-68
2023/06/11 03:03:40;;;;;;;;;;;24.00;55.30;;;;;;5071120;28;19932;-69
2023/06/11 03:06:06;;;;;;;;;;;24.00;55.40;;;;;;5064318;28;19932;-69
2023/06/11 03:08:33;;;;;;;;;;;23.90;55.40;;;;;;5057620;28;19974;-69
2023/06/11 03:11:01;;;;;;;;;;;23.90;55.40;;;;;;5059157;28;19944;-69
2023/06/11 03:13:27;;;;;;;;;;;23.80;55.40;;;;;;5054614;28;19936;-69
2023/06/11 03:15:55;;;;;;;;;;;23.80;55.60;;;;;;5056764;28;19928;-68
2023/06/11 03:18:21;;;;;;;;;;;23.80;55.60;;;;;;5059449;28;19933;-67
2023/06/11 03:20:48;;;;;;;;;;;23.80;55.60;;;;;;5056486;28;19940;-69
2023/06/11 03:23:15;;;;;;;;;;;23.80;55.70;;;;;;5053803;28;20010;-68
2023/06/11 03:25:42;;;;;;;;;;;23.70;55.80;;;;;;5057824;28;20417;-67
2023/06/11 03:28:10;;;;;;;;;;;23.70;55.80;;;;;;5067543;28;19981;-67
2023/06/11 03:30:36;;;;;;;;;;;23.70;55.90;;;;;;5057535;28;19929;-69
2023/06/11 03:33:03;;;;;;;;;;;23.70;56.00;;;;;;5054971;28;19928;-69
2023/06/11 03:35:29;;;;;;;;;;;23.60;56.10;;;;;;5057166;28;20464;-69
2023/06/11 03:37:56;;;;;;;;;;;23.50;56.00;;;;;;5056968;28;19932;-69
2023/06/11 03:40:23;;;;;;;;;;;23.60;56.10;;;;;;5059481;28;19932;-69
2023/06/11 03:42:49;;;;;;;;;;;23.50;56.10;;;;;;5054191;28;19939;-69
2023/06/11 03:45:17;;;;;;;;;;;23.50;56.20;;;;;;5056182;28;19928;-69
2023/06/11 03:47:43;;;;;;;;;;;23.40;56.30;;;;;;5063865;28;19928;-69
2023/06/11 03:50:10;;;;;;;;;;;23.40;56.40;;;;;;5064284;28;19928;-69
2023/06/11 03:52:37;;;;;;;;;;;23.40;56.40;;;;;;5054930;28;19933;-69
2023/06/11 03:55:03;;;;;;;;;;;23.40;56.50;;;;;;5055830;28;20349;-69
2023/06/11 03:57:30;;;;;;;;;;;23.30;56.60;;;;;;5053578;28;20357;-69
2023/06/11 03:59:56;;;;;;;;;;;23.30;56.60;;;;;;5063625;28;20006;-69
2023/06/11 04:02:26;;;;;;;;;;;23.30;56.70;;;;;;5057712;28;19933;-69
2023/06/11 04:04:52;;;;;;;;;;;23.30;56.80;;;;;;5060070;28;19928;-69
2023/06/11 04:07:19;;;;;;;;;;;23.20;56.80;;;;;;5057831;28;19997;-69
2023/06/11 04:09:46;;;;;;;;;;;23.20;56.90;;;;;;5055615;28;19929;-67
2023/06/11 04:12:12;;;;;;;;;;;23.10;56.90;;;;;;5059965;28;19959;-69
2023/06/11 04:14:39;;;;;;;;;;;23.20;57.00;;;;;;5059370;28;19962;-69
2023/06/11 04:17:06;;;;;;;;;;;23.10;57.00;;;;;;5054181;28;21070;-69
2023/06/11 04:19:33;;;;;;;;;;;23.10;57.10;;;;;;5054655;28;19938;-69
2023/06/11 04:22:00;;;;;;;;;;;23.10;57.10;;;;;;5053624;28;19928;-69
2023/06/11 04:24:26;;;;;;;;;;;23.00;57.20;;;;;;5055305;28;19932;-70
2023/06/11 04:26:53;;;;;;;;;;;23.00;57.20;;;;;;5065131;28;19989;-69
2023/06/11 04:29:20;;;;;;;;;;;23.00;57.20;;;;;;5059807;28;19932;-69
2023/06/11 04:31:47;;;;;;;;;;;23.00;57.40;;;;;;5060683;28;19932;-69
2023/06/11 04:34:16;;;;;;;;;;;23.00;57.40;;;;;;5063673;28;20352;-69
2023/06/11 04:36:44;;;;;;;;;;;22.90;57.40;;;;;;5065116;28;19924;-67
2023/06/11 04:39:11;;;;;;;;;;;22.90;57.60;;;;;;5056009;28;19932;-69
2023/06/11 04:41:37;;;;;;;;;;;22.90;57.60;;;;;;5061619;28;19936;-69
2023/06/11 04:44:04;;;;;;;;;;;22.90;57.70;;;;;;5060965;28;19974;-69
2023/06/11 04:46:32;;;;;;;;;;;22.90;57.80;;;;;;5059348;28;20733;-69
2023/06/11 04:49:00;;;;;;;;;;;22.80;57.80;;;;;;5070153;28;19936;-68
2023/06/11 04:51:28;;;;;;;;;;;22.80;57.90;;;;;;5062256;28;19940;-69
2023/06/11 04:53:57;;;;;;;;;;;22.80;58.00;;;;;;5068776;28;20672;-69
2023/06/11 04:56:23;;;;;;;;;;;22.80;58.00;;;;;;5063235;28;19939;-69
2023/06/11 04:58:50;;;;;;;;;;;22.80;58.10;;;;;;5066569;28;19928;-68
2023/06/11 05:01:17;;;;;;;;;;;22.70;58.10;;;;;;5058182;28;20007;-69
2023/06/11 05:03:44;;;;;;;;;;;22.70;58.20;;;;;;5047880;28;19935;-67
2023/06/11 05:06:13;;;;;;;;;;;22.60;58.30;;;;;;5056997;28;19985;-69
2023/06/11 05:08:39;;;;;;;;;;;22.60;58.40;;;;;;5053361;28;19928;-69
2023/06/11 05:11:07;;;;;;;;;;;22.60;58.50;;;;;;5059654;28;19975;-69
2023/06/11 05:13:34;;;;;;;;;;;22.60;58.50;;;;;;5053251;28;20810;-69
2023/06/11 05:16:00;;;;;;;;;;;22.60;58.50;;;;;;5054389;28;20040;-67
2023/06/11 05:18:27;;;;;;;;;;;22.60;58.50;;;;;;5054201;28;19928;-69
2023/06/11 05:20:54;;;;;;;;;;;22.60;58.60;;;;;;5062110;28;19924;-69
2023/06/11 05:23:27;;;;;;;;;;;22.60;58.60;;;;;;5051034;28;20019;-69
2023/06/11 05:25:58;;;;;;;;;;;22.50;58.50;;;;;;5053393;28;19930;-69
2023/06/11 05:28:26;;;;;;;;;;;22.60;58.60;;;;;;5046023;28;19933;-69
2023/06/11 05:30:52;;;;;;;;;;;22.60;58.60;;;;;;5047695;28;19937;-69
2023/06/11 05:33:20;;;;;;;;;;;22.60;58.70;;;;;;5049166;28;20411;-69
2023/06/11 05:35:47;;;;;;;;;;;22.60;58.70;;;;;;5047808;28;20516;-69
2023/06/11 05:38:13;;;;;;;;;;;22.60;58.70;;;;;;5044477;28;19944;-69
2023/06/11 05:40:40;;;;;;;;;;;22.60;58.80;;;;;;5047045;28;19929;-70
2023/06/11 05:43:07;;;;;;;;;;;22.60;58.80;;;;;;5045063;28;19944;-70
2023/06/11 05:45:35;;;;;;;;;;;22.60;58.80;;;;;;5046297;28;19936;-69
2023/06/11 05:48:03;;;;;;;;;;;22.60;58.80;;;;;;5056229;28;20307;-70
2023/06/11 05:50:30;;;;;;;;;;;22.60;58.80;;;;;;5056413;28;19928;-69
2023/06/11 05:52:57;;;;;;;;;;;22.60;58.90;;;;;;5047317;28;19978;-69
2023/06/11 05:55:23;;;;;;;;;;;22.60;58.90;;;;;;5054037;28;20488;-69
2023/06/11 05:57:50;;;;;;;;;;;22.60;58.90;;;;;;5054476;28;19924;-69
2023/06/11 06:00:17;;;;;;;;;;;22.60;59.00;;;;;;5052458;28;19928;-70
2023/06/11 06:02:44;;;;;;;;;;;22.60;59.00;;;;;;5051710;28;19932;-69
2023/06/11 06:05:11;;;;;;;;;;;22.60;59.00;;;;;;5051752;28;19935;-69
2023/06/11 06:07:38;;;;;;;;;;;22.60;59.00;;;;;;5053803;28;19959;-68
2023/06/11 06:10:04;;;;;;;;;;;22.60;59.00;;;;;;5051435;28;19931;-69
2023/06/11 06:12:31;;;;;;;;;;;22.70;59.70;;;;;;5049211;28;19933;-69
2023/06/11 06:14:57;;;;;;;;;;;22.70;59.10;;;;;;5043549;28;19940;-69
2023/06/11 06:17:24;;;;;;;;;;;22.70;59.10;;;;;;5051206;28;20337;-69
2023/06/11 06:19:52;;;;;;;;;;;22.70;59.00;;;;;;5055689;28;19940;-69
2023/06/11 06:22:18;;;;;;;;;;;22.70;59.10;;;;;;5050665;28;20655;-69
2023/06/11 06:24:45;;;;;;;;;;;22.70;59.10;;;;;;5049341;28;19982;-69
2023/06/11 06:27:12;;;;;;;;;;;22.70;59.10;;;;;;5053525;28;19974;-69
2023/06/11 06:29:39;;;;;;;;;;;22.80;59.20;;;;;;5050469;28;20625;-69
2023/06/11 06:32:06;;;;;;;;;;;22.70;59.20;;;;;;5055481;28;19941;-69
2023/06/11 06:34:33;;;;;;;;;;;22.70;59.20;;;;;;5054171;28;19936;-69
2023/06/11 06:37:01;;;;;;;;;;;22.80;59.40;;;;;;5050352;28;19932;-69
2023/06/11 06:39:28;;;;;;;;;;;22.70;59.30;;;;;;5048763;28;19986;-69
2023/06/11 06:41:54;;;;;;;;;;;22.80;59.40;;;;;;5046332;28;19932;-69
2023/06/11 06:44:21;;;;;;;;;;;22.80;59.60;;;;;;5053759;28;19928;-70
2023/06/11 06:46:47;;;;;;;;;;;22.90;59.70;;;;;;5048759;28;19936;-68
2023/06/11 06:49:14;;;;;;;;;;;22.80;59.60;;;;;;5055588;28;20019;-70
2023/06/11 06:51:40;;;;;;;;;;;22.90;59.70;;;;;;5054027;28;19932;-69
2023/06/11 06:54:08;;;;;;;;;;;22.90;59.70;;;;;;5060183;28;19932;-69
2023/06/11 06:56:35;;;;;;;;;;;22.90;59.70;;;;;;5054971;28;19928;-67
2023/06/11 06:59:01;;;;;;;;;;;22.90;59.70;;;;;;5050369;28;20703;-69
2023/06/11 07:01:28;;;;;;;;;;;22.90;59.70;;;;;;5047703;28;19932;-70
2023/06/11 07:03:54;;;;;;;;;;;22.90;59.70;;;;;;5049736;28;19982;-70
2023/06/11 07:06:21;;;;;;;;;;;22.90;59.90;;;;;;5049029;28;19935;-69
2023/06/11 07:08:47;;;;;;;;;;;22.90;59.80;;;;;;5049566;28;19929;-69
2023/06/11 07:11:15;;;;;;;;;;;23.00;60.00;;;;;;5050715;28;20341;-69
2023/06/11 07:13:42;;;;;;;;;;;23.00;60.10;;;;;;5043826;28;20367;-69
2023/06/11 07:16:08;;;;;;;;;;;23.00;60.20;;;;;;5047604;28;19936;-68
2023/06/11 07:18:35;;;;;;;;;;;23.00;60.20;;;;;;5054879;28;20723;-69
2023/06/11 07:21:02;;;;;;;;;;;23.00;60.30;;;;;;5056956;28;19932;-69
2023/06/11 07:23:28;;;;;;;;;;;23.00;60.30;;;;;;5052872;28;19932;-69
2023/06/11 07:25:56;;;;;;;;;;;23.00;60.30;;;;;;5058366;28;20472;-69
2023/06/11 07:28:24;;;;;;;;;;;23.00;60.90;;;;;;5051958;28;19928;-69
2023/06/11 07:30:51;;;;;;;;;;;23.00;61.60;;;;;;5053507;28;19946;-69
2023/06/11 07:33:17;;;;;;;;;;;23.10;62.00;;;;;;5056175;28;20356;-68
2023/06/11 07:35:46;;;;;;;;;;;23.10;61.90;;;;;;5049107;28;20424;-69
2023/06/11 07:38:13;;;;;;;;;;;23.10;62.20;;;;;;5059904;28;19932;-69
2023/06/11 07:40:40;;;;;;;;;;;23.10;62.20;;;;;;5061367;28;19929;-69
2023/06/11 07:43:06;;;;;;;;;;;23.10;62.00;;;;;;5054338;28;20059;-69
2023/06/11 07:45:34;;;;;;;;;;;23.10;61.80;;;;;;5062336;28;19955;-70
2023/06/11 07:48:02;;;;;;;;;;;23.20;61.80;;;;;;5056007;28;19929;-68
2023/06/11 07:50:28;;;;;;;;;;;23.20;61.60;;;;;;5057464;28;20011;-69
2023/06/11 07:52:56;;;;;;;;;;;23.20;61.30;;;;;;5055376;28;19925;-69
2023/06/11 07:55:23;;;;;;;;;;;23.20;61.60;;;;;;5056731;28;19928;-69
2023/06/11 07:57:49;;;;;;;;;;;23.30;61.30;;;;;;5054331;28;19928;-67
2023/06/11 08:00:17;;;;;;;;;;;23.30;61.10;;;;;;5051968;28;19925;-70
2023/06/11 08:02:45;;;;;;;;;;;23.30;60.90;;;;;;5056611;28;20431;-69
2023/06/11 08:05:12;;;;;;;;;;;23.30;60.80;;;;;;5058784;28;19928;-69
2023/06/11 08:07:39;;;;;;;;;;;23.40;60.70;;;;;;5055741;28;20975;-69
2023/06/11 08:10:06;;;;;;;;;;;23.40;60.50;;;;;;5054337;28;19935;-69
2023/06/11 08:12:32;;;;;;;;;;;23.40;60.30;;;;;;5059473;28;19962;-69
2023/06/11 08:14:59;;;;;;;;;;;23.40;60.20;;;;;;5055099;28;19981;-69
2023/06/11 08:17:25;;;;;;;;;;;23.50;60.20;;;;;;5054403;28;20283;-69
2023/06/11 08:19:53;;;;;;;;;;;23.50;60.20;;;;;;5051932;28;20458;-68
2023/06/11 08:22:20;;;;;;;;;;;23.50;60.00;;;;;;5058617;28;19928;-68
2023/06/11 08:24:46;;;;;;;;;;;23.60;59.80;;;;;;5049671;28;19998;-70
2023/06/11 08:27:13;;;;;;;;;;;23.60;59.70;;;;;;5055790;28;19928;-70
2023/06/11 08:29:39;;;;;;;;;;;23.60;59.70;;;;;;5056764;28;19998;-69
2023/06/11 08:32:06;;;;;;;;;;;23.60;59.60;;;;;;5054714;28;20051;-69
2023/06/11 08:34:33;;;;;;;;;;;23.70;59.50;;;;;;5054032;28;19928;-68
2023/06/11 08:37:01;;;;;;;;;;;23.70;59.40;;;;;;5055183;28;19929;-69
2023/06/11 08:39:27;;;;;;;;;;;23.80;59.40;;;;;;5053394;28;19939;-69
2023/06/11 08:41:54;;;;;;;;;;;23.80;59.30;;;;;;5052605;28;19929;-70
2023/06/11 08:44:21;;;;;;;;;;;23.80;59.00;;;;;;5048699;28;19929;-69
2023/06/11 08:46:49;;;;;;;;;;;23.80;58.90;;;;;;5052955;28;20004;-67
2023/06/11 08:49:19;;;;;;;;;;;23.90;58.90;;;;;;5056118;28;19929;-69
2023/06/11 08:51:47;;;;;;;;;;;23.90;58.70;;;;;;5054635;28;19963;-69
2023/06/11 08:54:15;;;;;;;;;;;23.90;58.60;;;;;;5056394;28;19974;-69
2023/06/11 08:56:42;;;;;;;;;;;24.00;58.50;;;;;;5053177;28;20003;-69
2023/06/11 08:59:09;;;;;;;;;;;24.00;58.30;;;;;;5051208;28;19959;-69
2023/06/11 09:01:36;;;;;;;;;;;24.10;58.00;;;;;;5055654;28;19936;-69
2023/06/11 09:04:02;;;;;;;;;;;24.10;57.90;;;;;;5056369;28;19982;-69
2023/06/11 09:06:29;;;;;;;;;;;24.10;57.80;;;;;;5053166;28;20460;-69
2023/06/11 09:08:59;;;;;;;;;;;24.10;57.60;;;;;;5054675;28;19939;-70
2023/06/11 09:11:32;;;;;;;;;;;24.20;57.40;;;;;;5053983;28;19936;-69
2023/06/11 09:13:58;;;;;;;;;;;24.20;57.20;;;;;;5050007;28;20448;-69
2023/06/11 09:16:25;;;;;;;;;;;24.20;57.20;;;;;;5057594;28;19932;-69
2023/06/11 09:18:52;;;;;;;;;;;24.30;57.20;;;;;;5057348;28;19929;-69
2023/06/11 09:21:18;;;;;;;;;;;24.30;57.20;;;;;;5054590;28;19928;-69
2023/06/11 09:23:46;;;;;;;;;;;24.30;57.10;;;;;;5047609;28;20101;-69
2023/06/11 09:26:17;;;;;;;;;;;24.40;57.00;;;;;;5055120;28;20066;-70
2023/06/11 09:28:46;;;;;;;;;;;24.50;56.90;;;;;;5050765;28;19928;-68
2023/06/11 09:31:12;;;;;;;;;;;24.50;56.20;;;;;;5048150;28;20707;-69
2023/06/11 09:33:39;;;;;;;;;;;24.50;55.70;;;;;;5055022;28;19936;-70
2023/06/11 09:36:05;;;;;;;;;;;24.50;55.00;;;;;;5045457;28;19939;-69
2023/06/11 09:38:33;;;;;;;;;;;24.60;54.90;;;;;;5053095;28;20065;-70
2023/06/11 09:41:00;;;;;;;;;;;24.70;54.30;;;;;;5053612;28;20398;-70
2023/06/11 09:43:27;;;;;;;;;;;24.70;53.70;;;;;;5054120;28;19936;-70
2023/06/11 09:45:55;;;;;;;;;;;24.70;53.40;;;;;;5063506;28;20025;-70
2023/06/11 09:48:22;;;;;;;;;;;24.80;53.00;;;;;;5057032;28;19932;-69
2023/06/11 09:50:50;;;;;;;;;;;24.90;52.70;;;;;;5060544;28;20773;-70
2023/06/11 09:53:18;;;;;;;;;;;24.90;52.50;;;;;;5061300;28;20290;-70
2023/06/11 09:55:45;;;;;;;;;;;24.90;52.40;;;;;;5057553;28;19925;-69
2023/06/11 09:58:12;;;;;;;;;;;25.00;52.00;;;;;;5050384;28;20406;-69
2023/06/11 10:00:39;;;;;;;;;;;25.10;51.70;;;;;;5052521;28;19928;-70
2023/06/11 10:03:06;;;;;;;;;;;25.10;50.40;;;;;;5062026;28;21914;-71
2023/06/11 10:05:35;;;;;;;;;;;25.20;50.10;;;;;;5050930;28;19933;-70
2023/06/11 10:08:03;;;;;;;;;;;25.30;50.10;;;;;;5058070;28;20352;-70
2023/06/11 10:10:34;;;;;;;;;;;25.40;50.00;;;;;;5069326;28;19959;-70
2023/06/11 10:13:01;;;;;;;;;;;25.40;49.70;;;;;;5040874;28;19979;-70
2023/06/11 10:15:31;;;;;;;;;;;25.50;49.50;;;;;;5048136;28;19951;-68
2023/06/11 10:17:57;;;;;;;;;;;25.50;49.30;;;;;;5038065;28;19955;-70
2023/06/11 10:20:28;;;;;;;;;;;25.60;49.00;;;;;;5039287;28;19990;-68
2023/06/11 10:23:05;;;;;;;;;;;25.60;49.00;;;;;;5039181;28;20858;-70
2023/06/11 10:25:35;;;;;;;;;;;25.80;49.00;;;;;;5052090;28;19924;-71
2023/06/11 10:28:02;;;;;;;;;;;25.80;48.70;;;;;;5055165;28;19925;-72
2023/06/11 10:30:28;;;;;;;;;;;25.90;48.60;;;;;;5052261;28;19975;-71
2023/06/11 10:32:56;;;;;;;;;;;25.90;48.60;;;;;;5052713;28;19969;-72
2023/06/11 10:35:23;;;;;;;;;;;26.00;48.50;;;;;;5050002;28;19974;-70
2023/06/11 10:37:52;;;;;;;;;;;26.10;48.30;;;;;;5046673;28;19936;-70
2023/06/11 10:40:18;;;;;;;;;;;26.10;47.80;;;;;;5042845;28;19942;-71
2023/06/11 10:42:51;;;;;;;;;;;26.20;47.90;;;;;;5046400;28;20451;-70
2023/06/11 10:45:18;;;;;;;;;;;26.30;47.80;;;;;;5048402;28;20568;-70
2023/06/11 10:47:45;;;;;;;;;;;26.30;47.70;;;;;;5045412;28;19964;-72
2023/06/11 10:50:13;;;;;;;;;;;26.40;47.40;;;;;;5045142;28;19935;-71
2023/06/11 10:52:49;;;;;;;;;;;26.40;47.40;;;;;;5056414;28;20548;-71
2023/06/11 10:55:18;;;;;;;;;;;26.50;46.80;;;;;;5052136;28;19928;-70
2023/06/11 10:57:44;;;;;;;;;;;26.60;46.20;;;;;;5061534;28;19928;-70
2023/06/11 11:00:11;;;;;;;;;;;26.70;46.00;;;;;;5062182;28;19929;-70
2023/06/11 11:02:39;;;;;;;;;;;26.70;46.20;;;;;;5063125;28;19932;-70
2023/06/11 11:05:08;;;;;;;;;;;26.80;46.00;;;;;;5056935;28;19993;-70
2023/06/11 11:07:35;;;;;;;;;;;26.80;45.40;;;;;;5050233;28;19994;-70
2023/06/11 11:10:04;;;;;;;;;;;26.90;45.10;;;;;;5058689;28;19939;-70
2023/06/11 11:12:37;;;;;;;;;;;26.90;44.90;;;;;;5052816;28;22223;-71
2023/06/11 11:15:04;;;;;;;;;;;27.00;45.10;;;;;;5046243;28;19932;-70
2023/06/11 11:17:31;;;;;;;;;;;27.10;45.20;;;;;;5062359;28;20041;-71
2023/06/11 11:19:58;;;;;;;;;;;27.10;45.10;;;;;;5057772;28;20591;-71
2023/06/11 11:22:25;;;;;;;;;;;27.20;44.70;;;;;;5057529;28;19928;-70
2023/06/11 11:24:52;;;;;;;;;;;27.30;44.10;;;;;;5054668;28;19955;-71
2023/06/11 11:27:22;;;;;;;;;;;27.30;44.10;;;;;;5060104;28;20382;-71
2023/06/11 11:29:50;;;;;;;;;;;27.30;43.80;;;;;;5055901;28;20357;-71
2023/06/11 11:32:17;;;;;;;;;;;27.40;43.70;;;;;;5049696;28;19935;-70
2023/06/11 11:34:44;;;;;;;;;;;27.50;43.80;;;;;;5058312;28;19935;-69
2023/06/11 11:37:11;;;;;;;;;;;27.50;43.50;;;;;;5059901;28;19929;-71
2023/06/11 11:39:37;;;;;;;;;;;27.60;43.20;;;;;;5063394;28;20045;-70
2023/06/11 11:42:08;;;;;;;;;;;27.60;43.00;;;;;;5053496;28;21141;-69
2023/06/11 11:44:38;;;;;;;;;;;27.70;43.20;;;;;;5046255;28;19928;-70
2023/06/11 11:47:09;;;;;;;;;;;27.70;42.90;;;;;;5057596;28;19932;-69
2023/06/11 11:49:36;;;;;;;;;;;27.80;42.50;;;;;;5053983;28;19933;-70
2023/06/11 11:52:03;;;;;;;;;;;27.90;42.40;;;;;;5052020;28;19989;-71
2023/06/11 11:54:30;;;;;;;;;;;27.90;42.20;;;;;;5060887;28;19935;-70
2023/06/11 11:57:02;;;;;;;;;;;28.00;41.90;;;;;;5058464;28;19936;-70
2023/06/11 11:59:29;;;;;;;;;;;28.00;41.80;;;;;;5049804;28;19932;-70
2023/06/11 12:01:55;;;;;;;;;;;28.10;42.30;;;;;;5047153;28;20481;-70
2023/06/11 12:04:32;;;;;;;;;;;28.10;42.30;;;;;;5056908;28;20326;-70
2023/06/11 12:07:02;;;;;;;;;;;28.20;42.00;;;;;;5052763;28;19955;-70
2023/06/11 12:09:28;;;;;;;;;;;28.20;42.00;;;;;;5056392;28;20397;-71
2023/06/11 12:11:55;;;;;;;;;;;28.30;41.70;;;;;;5056869;28;19958;-70
2023/06/11 12:14:21;;;;;;;;;;;28.30;41.50;;;;;;5051790;28;19935;-71
2023/06/11 12:16:48;;;;;;;;;;;28.40;41.40;;;;;;5048335;28;19974;-70
2023/06/11 12:19:17;;;;;;;;;;;28.40;41.20;;;;;;5060176;28;19932;-71
2023/06/11 12:21:45;;;;;;;;;;;28.50;40.90;;;;;;5053169;28;19929;-70
2023/06/11 12:24:14;;;;;;;;;;;28.50;40.80;;;;;;5058314;28;19928;-69
2023/06/11 12:26:42;;;;;;;;;;;28.50;40.70;;;;;;5057153;28;19928;-71
2023/06/11 12:29:09;;;;;;;;;;;28.60;40.50;;;;;;5058681;28;19956;-68
2023/06/11 12:31:35;;;;;;;;;;;28.70;40.90;;;;;;5053134;28;20587;-71
2023/06/11 12:34:02;;;;;;;;;;;28.70;40.90;;;;;;5052516;28;19958;-71
2023/06/11 12:36:28;;;;;;;;;;;28.70;40.60;;;;;;5065323;28;19973;-71
2023/06/11 12:38:56;;;;;;;;;;;28.80;40.20;;;;;;5055992;28;19933;-71
2023/06/11 12:41:23;;;;;;;;;;;28.80;40.00;;;;;;5054678;28;19982;-71
2023/06/11 12:43:50;;;;;;;;;;;28.90;40.10;;;;;;5058748;28;19936;-70
2023/06/11 12:46:16;;;;;;;;;;;28.90;39.90;;;;;;5069608;28;19940;-71
2023/06/11 12:48:43;;;;;;;;;;;29.00;39.30;;;;;;5059495;28;19986;-71
2023/06/11 12:51:09;;;;;;;;;;;29.00;38.90;;;;;;5061184;28;19928;-70
2023/06/11 12:53:36;;;;;;;;;;;29.10;39.10;;;;;;5057248;28;20625;-71
2023/06/11 12:56:04;;;;;;;;;;;29.10;38.70;;;;;;5057500;28;19925;-70
2023/06/11 12:58:31;;;;;;;;;;;29.20;38.70;;;;;;5053507;28;19925;-71
2023/06/11 13:00:57;;;;;;;;;;;29.40;36.90;;;;;;5053076;28;19933;-71
2023/06/11 13:03:24;;;;;;;;;;;29.50;37.40;;;;;;5052485;28;19994;-71
2023/06/11 13:05:50;;;;;;;;;;;29.50;37.10;;;;;;5054083;28;19989;-70
2023/06/11 13:08:17;;;;;;;;;;;29.60;37.10;;;;;;5052184;28;19932;-71
2023/06/11 13:10:44;;;;;;;;;;;29.60;37.20;;;;;;5058700;28;19932;-71
2023/06/11 13:13:12;;;;;;;;;;;29.60;37.40;;;;;;5044771;28;19928;-70
2023/06/11 13:15:43;;;;;;;;;;;29.60;37.20;;;;;;5058059;28;19924;-71
2023/06/11 13:18:12;;;;;;;;;;;29.60;37.10;;;;;;5049360;28;20467;-69
2023/06/11 13:20:38;;;;;;;;;;;29.60;37.20;;;;;;5045465;28;19939;-71
2023/06/11 13:23:05;;;;;;;;;;;29.70;37.40;;;;;;5048407;28;19997;-71
2023/06/11 13:25:32;;;;;;;;;;;29.70;37.30;;;;;;5051984;28;19942;-72
2023/06/11 13:27:58;;;;;;;;;;;29.80;37.30;;;;;;5059289;28;19969;-72
2023/06/11 13:30:26;;;;;;;;;;;29.80;37.20;;;;;;5054309;28;19932;-71
2023/06/11 13:32:53;;;;;;;;;;;29.80;37.20;;;;;;5057023;28;20002;-71
2023/06/11 13:35:19;;;;;;;;;;;29.90;36.80;;;;;;5055936;28;20667;-71
2023/06/11 13:37:46;;;;;;;;;;;29.90;36.50;;;;;;5053778;28;19932;-71
2023/06/11 13:40:12;;;;;;;;;;;30.00;36.70;;;;;;5049682;28;19974;-70
2023/06/11 13:42:39;;;;;;;;;;;30.00;37.00;;;;;;5054120;28;19935;-71
2023/06/11 13:45:06;;;;;;;;;;;30.10;36.90;;;;;;5054457;28;19928;-70
2023/06/11 13:47:34;;;;;;;;;;;30.20;36.60;;;;;;5059140;28;19989;-72
2023/06/11 13:50:00;;;;;;;;;;;30.20;36.00;;;;;;5051832;28;19981;-70
2023/06/11 13:52:27;;;;;;;;;;;30.20;36.70;;;;;;5052949;28;20002;-71
2023/06/11 13:54:53;;;;;;;;;;;30.30;36.10;;;;;;5057286;28;19998;-70
2023/06/11 13:57:20;;;;;;;;;;;30.30;36.00;;;;;;5046330;28;19929;-71
2023/06/11 13:59:46;;;;;;;;;;;30.40;35.70;;;;;;5053187;28;19932;-72
2023/06/11 14:02:13;;;;;;;;;;;30.40;35.90;;;;;;5051409;28;19931;-70
2023/06/11 14:04:41;;;;;;;;;;;30.50;36.20;;;;;;5057705;28;20287;-71
2023/06/11 14:07:07;;;;;;;;;;;30.50;35.90;;;;;;5056660;28;19936;-71
2023/06/11 14:09:34;;;;;;;;;;;30.50;35.50;;;;;;5053352;28;19928;-71
2023/06/11 14:12:00;;;;;;;;;;;30.60;35.50;;;;;;5053690;28;19932;-72
2023/06/11 14:14:31;;;;;;;;;;;30.60;35.70;;;;;;5052574;28;20345;-71
2023/06/11 14:16:58;;;;;;;;;;;30.70;35.70;;;;;;5051563;28;20609;-70